sensor_id;sensor_type;location;lat;lon;timestamp;P1;durP1;ratioP1;P2;durP2;ratioP2
5912;SDS011;2982;42.684;23.356;2022-08-03T00:02:04;2.22;;;1.48;;
5912;SDS011;2982;42.684;23.356;2022-08-03T00:04:30;4.00;;;1.55;;
5912;SDS011;2982;42.684;23.356;2022-08-03T00:06:55;1.67;;;1.58;;
5912;SDS011;2982;42.684;23.356;2022-08-03T00:09:20;2.88;;;1.90;;
5912;SDS011;2982;42.684;23.356;2022-08-03T00:11:45;4.03;;;2.58;;
5912;SDS011;2982;42.684;23.356;2022-08-03T00:14:11;2.63;;;2.05;;
5912;SDS011;2982;42.684;23.356;2022-08-03T00:16:36;1.77;;;1.67;;
5912;SDS011;2982;42.684;23.356;2022-08-03T00:19:01;3.28;;;1.92;;
5912;SDS011;2982;42.684;23.356;2022-08-03T00:21:27;5.72;;;1.55;;
5912;SDS011;2982;42.684;23.356;2022-08-03T00:23:53;8.82;;;1.90;;
5912;SDS011;2982;42.684;23.356;2022-08-03T00:26:21;1.73;;;1.63;;
5912;SDS011;2982;42.684;23.356;2022-08-03T00:28:46;4.53;;;2.00;;
5912;SDS011;2982;42.684;23.356;2022-08-03T00:31:13;2.90;;;1.52;;
5912;SDS011;2982;42.684;23.356;2022-08-03T00:33:38;1.67;;;1.58;;
5912;SDS011;2982;42.684;23.356;2022-08-03T00:36:03;2.00;;;1.73;;
5912;SDS011;2982;42.684;23.356;2022-08-03T00:38:29;3.97;;;1.88;;
5912;SDS011;2982;42.684;23.356;2022-08-03T00:40:54;4.55;;;1.50;;
5912;SDS011;2982;42.684;23.356;2022-08-03T00:43:23;3.33;;;1.88;;
5912;SDS011;2982;42.684;23.356;2022-08-03T00:45:49;1.77;;;1.65;;
5912;SDS011;2982;42.684;23.356;2022-08-03T00:48:15;2.47;;;1.88;;
5912;SDS011;2982;42.684;23.356;2022-08-03T00:50:41;2.75;;;1.80;;
5912;SDS011;2982;42.684;23.356;2022-08-03T00:53:09;3.90;;;1.85;;
5912;SDS011;2982;42.684;23.356;2022-08-03T00:55:35;2.45;;;2.33;;
5912;SDS011;2982;42.684;23.356;2022-08-03T00:58:02;2.42;;;2.10;;
5912;SDS011;2982;42.684;23.356;2022-08-03T01:00:28;1.55;;;1.45;;
5912;SDS011;2982;42.684;23.356;2022-08-03T01:02:53;1.90;;;1.80;;
5912;SDS011;2982;42.684;23.356;2022-08-03T01:05:21;3.92;;;1.65;;
5912;SDS011;2982;42.684;23.356;2022-08-03T01:08:01;2.17;;;1.70;;
5912;SDS011;2982;42.684;23.356;2022-08-03T01:13:28;3.35;;;1.70;;
5912;SDS011;2982;42.684;23.356;2022-08-03T01:15:59;2.25;;;1.77;;
5912;SDS011;2982;42.684;23.356;2022-08-03T01:20:55;2.20;;;1.73;;
5912;SDS011;2982;42.684;23.356;2022-08-03T01:23:36;1.65;;;1.55;;
5912;SDS011;2982;42.684;23.356;2022-08-03T01:32:15;3.33;;;1.40;;
5912;SDS011;2982;42.684;23.356;2022-08-03T01:34:51;1.48;;;1.25;;
5912;SDS011;2982;42.684;23.356;2022-08-03T01:37:27;2.83;;;1.85;;
5912;SDS011;2982;42.684;23.356;2022-08-03T01:40:05;1.73;;;1.45;;
5912;SDS011;2982;42.684;23.356;2022-08-03T01:42:33;1.85;;;1.75;;
5912;SDS011;2982;42.684;23.356;2022-08-03T01:45:00;3.00;;;1.48;;
5912;SDS011;2982;42.684;23.356;2022-08-03T01:47:27;1.52;;;1.42;;
5912;SDS011;2982;42.684;23.356;2022-08-03T01:49:54;1.08;;;1.08;;
5912;SDS011;2982;42.684;23.356;2022-08-03T01:52:21;1.00;;;1.00;;
5912;SDS011;2982;42.684;23.356;2022-08-03T01:54:48;2.30;;;1.00;;
5912;SDS011;2982;42.684;23.356;2022-08-03T01:57:16;2.75;;;1.55;;
5912;SDS011;2982;42.684;23.356;2022-08-03T01:59:43;3.90;;;1.30;;
5912;SDS011;2982;42.684;23.356;2022-08-03T02:02:11;1.20;;;1.10;;
5912;SDS011;2982;42.684;23.356;2022-08-03T02:04:40;3.38;;;0.93;;
5912;SDS011;2982;42.684;23.356;2022-08-03T02:07:07;2.70;;;1.25;;
5912;SDS011;2982;42.684;23.356;2022-08-03T02:09:36;1.40;;;1.30;;
5912;SDS011;2982;42.684;23.356;2022-08-03T02:12:07;1.40;;;1.30;;
5912;SDS011;2982;42.684;23.356;2022-08-03T02:14:35;2.85;;;1.13;;
5912;SDS011;2982;42.684;23.356;2022-08-03T02:17:01;1.60;;;1.23;;
5912;SDS011;2982;42.684;23.356;2022-08-03T02:19:27;1.73;;;1.63;;
5912;SDS011;2982;42.684;23.356;2022-08-03T02:21:54;2.80;;;1.63;;
5912;SDS011;2982;42.684;23.356;2022-08-03T02:24:21;1.40;;;1.30;;
5912;SDS011;2982;42.684;23.356;2022-08-03T02:26:47;2.05;;;1.55;;
5912;SDS011;2982;42.684;23.356;2022-08-03T02:29:14;3.05;;;1.38;;
5912;SDS011;2982;42.684;23.356;2022-08-03T02:31:42;2.78;;;1.80;;
5912;SDS011;2982;42.684;23.356;2022-08-03T02:34:11;1.55;;;1.42;;
5912;SDS011;2982;42.684;23.356;2022-08-03T02:36:38;1.80;;;1.65;;
5912;SDS011;2982;42.684;23.356;2022-08-03T02:39:06;3.55;;;1.13;;
5912;SDS011;2982;42.684;23.356;2022-08-03T02:41:36;6.55;;;1.52;;
5912;SDS011;2982;42.684;23.356;2022-08-03T02:44:08;2.05;;;1.70;;
5912;SDS011;2982;42.684;23.356;2022-08-03T02:46:40;1.63;;;1.40;;
5912;SDS011;2982;42.684;23.356;2022-08-03T02:49:08;2.72;;;1.17;;
5912;SDS011;2982;42.684;23.356;2022-08-03T02:51:35;2.45;;;1.40;;
5912;SDS011;2982;42.684;23.356;2022-08-03T02:54:03;2.95;;;1.40;;
5912;SDS011;2982;42.684;23.356;2022-08-03T02:56:30;1.73;;;1.58;;
5912;SDS011;2982;42.684;23.356;2022-08-03T02:58:57;2.40;;;1.65;;
5912;SDS011;2982;42.684;23.356;2022-08-03T03:01:23;2.33;;;1.52;;
5912;SDS011;2982;42.684;23.356;2022-08-03T03:03:50;3.63;;;1.63;;
5912;SDS011;2982;42.684;23.356;2022-08-03T03:06:17;3.00;;;1.95;;
5912;SDS011;2982;42.684;23.356;2022-08-03T03:08:43;2.40;;;1.50;;
5912;SDS011;2982;42.684;23.356;2022-08-03T03:11:10;3.33;;;1.73;;
5912;SDS011;2982;42.684;23.356;2022-08-03T03:13:37;2.63;;;1.65;;
5912;SDS011;2982;42.684;23.356;2022-08-03T03:16:05;2.08;;;1.60;;
5912;SDS011;2982;42.684;23.356;2022-08-03T03:18:32;2.35;;;1.48;;
5912;SDS011;2982;42.684;23.356;2022-08-03T03:20:59;3.35;;;1.70;;
5912;SDS011;2982;42.684;23.356;2022-08-03T03:23:26;3.30;;;1.33;;
5912;SDS011;2982;42.684;23.356;2022-08-03T03:25:53;2.17;;;1.98;;
5912;SDS011;2982;42.684;23.356;2022-08-03T03:28:19;3.08;;;1.88;;
5912;SDS011;2982;42.684;23.356;2022-08-03T03:30:44;2.80;;;2.25;;
5912;SDS011;2982;42.684;23.356;2022-08-03T03:33:10;2.53;;;1.75;;
5912;SDS011;2982;42.684;23.356;2022-08-03T03:35:36;3.70;;;2.15;;
5912;SDS011;2982;42.684;23.356;2022-08-03T03:38:02;4.63;;;2.63;;
5912;SDS011;2982;42.684;23.356;2022-08-03T03:40:28;5.43;;;2.00;;
5912;SDS011;2982;42.684;23.356;2022-08-03T03:42:53;2.83;;;2.00;;
5912;SDS011;2982;42.684;23.356;2022-08-03T03:45:19;1.83;;;1.73;;
5912;SDS011;2982;42.684;23.356;2022-08-03T03:47:45;2.88;;;1.80;;
5912;SDS011;2982;42.684;23.356;2022-08-03T03:50:11;5.10;;;2.28;;
5912;SDS011;2982;42.684;23.356;2022-08-03T03:52:36;3.80;;;2.20;;
5912;SDS011;2982;42.684;23.356;2022-08-03T03:55:02;3.70;;;2.90;;
5912;SDS011;2982;42.684;23.356;2022-08-03T03:57:27;10.93;;;2.40;;
5912;SDS011;2982;42.684;23.356;2022-08-03T03:59:53;3.13;;;1.83;;
5912;SDS011;2982;42.684;23.356;2022-08-03T04:02:18;3.58;;;2.47;;
5912;SDS011;2982;42.684;23.356;2022-08-03T04:04:44;4.80;;;2.20;;
5912;SDS011;2982;42.684;23.356;2022-08-03T04:07:09;4.13;;;2.33;;
5912;SDS011;2982;42.684;23.356;2022-08-03T04:09:35;2.30;;;2.10;;
5912;SDS011;2982;42.684;23.356;2022-08-03T04:12:03;3.45;;;2.10;;
5912;SDS011;2982;42.684;23.356;2022-08-03T04:14:33;3.72;;;2.50;;
5912;SDS011;2982;42.684;23.356;2022-08-03T04:17:01;2.63;;;2.40;;
5912;SDS011;2982;42.684;23.356;2022-08-03T04:19:35;4.07;;;2.35;;
5912;SDS011;2982;42.684;23.356;2022-08-03T04:22:04;2.88;;;2.67;;
5912;SDS011;2982;42.684;23.356;2022-08-03T04:24:33;6.43;;;2.72;;
5912;SDS011;2982;42.684;23.356;2022-08-03T04:27:05;4.55;;;2.50;;
5912;SDS011;2982;42.684;23.356;2022-08-03T04:29:36;6.30;;;2.10;;
5912;SDS011;2982;42.684;23.356;2022-08-03T04:32:04;4.28;;;2.47;;
5912;SDS011;2982;42.684;23.356;2022-08-03T04:34:31;3.60;;;2.60;;
5912;SDS011;2982;42.684;23.356;2022-08-03T04:37:00;4.55;;;2.30;;
5912;SDS011;2982;42.684;23.356;2022-08-03T04:39:30;3.80;;;2.50;;
5912;SDS011;2982;42.684;23.356;2022-08-03T04:42:01;2.63;;;2.15;;
5912;SDS011;2982;42.684;23.356;2022-08-03T04:44:28;4.35;;;3.03;;
5912;SDS011;2982;42.684;23.356;2022-08-03T04:46:59;4.68;;;2.30;;
5912;SDS011;2982;42.684;23.356;2022-08-03T04:49:25;2.40;;;2.20;;
5912;SDS011;2982;42.684;23.356;2022-08-03T04:51:51;6.47;;;2.38;;
5912;SDS011;2982;42.684;23.356;2022-08-03T04:54:16;3.95;;;2.28;;
5912;SDS011;2982;42.684;23.356;2022-08-03T04:56:42;6.38;;;3.08;;
5912;SDS011;2982;42.684;23.356;2022-08-03T04:59:08;4.18;;;3.00;;
5912;SDS011;2982;42.684;23.356;2022-08-03T05:01:33;3.97;;;2.80;;
5912;SDS011;2982;42.684;23.356;2022-08-03T05:03:59;4.63;;;2.50;;
5912;SDS011;2982;42.684;23.356;2022-08-03T05:06:24;3.13;;;2.35;;
5912;SDS011;2982;42.684;23.356;2022-08-03T05:08:50;5.03;;;3.03;;
5912;SDS011;2982;42.684;23.356;2022-08-03T05:11:15;2.30;;;2.10;;
5912;SDS011;2982;42.684;23.356;2022-08-03T05:13:40;5.80;;;2.55;;
5912;SDS011;2982;42.684;23.356;2022-08-03T05:16:06;4.50;;;2.15;;
5912;SDS011;2982;42.684;23.356;2022-08-03T05:18:31;9.07;;;2.50;;
5912;SDS011;2982;42.684;23.356;2022-08-03T05:20:57;5.47;;;2.45;;
5912;SDS011;2982;42.684;23.356;2022-08-03T05:23:22;5.05;;;2.95;;
5912;SDS011;2982;42.684;23.356;2022-08-03T05:25:47;3.42;;;2.03;;
5912;SDS011;2982;42.684;23.356;2022-08-03T05:28:12;2.47;;;2.28;;
5912;SDS011;2982;42.684;23.356;2022-08-03T05:30:38;6.65;;;2.58;;
5912;SDS011;2982;42.684;23.356;2022-08-03T05:33:03;2.65;;;2.25;;
5912;SDS011;2982;42.684;23.356;2022-08-03T05:35:30;2.63;;;2.42;;
5912;SDS011;2982;42.684;23.356;2022-08-03T05:37:56;8.88;;;2.17;;
5912;SDS011;2982;42.684;23.356;2022-08-03T05:40:21;4.38;;;2.80;;
5912;SDS011;2982;42.684;23.356;2022-08-03T05:42:47;2.63;;;2.42;;
5912;SDS011;2982;42.684;23.356;2022-08-03T05:45:12;4.70;;;2.80;;
5912;SDS011;2982;42.684;23.356;2022-08-03T05:47:37;8.85;;;2.97;;
5912;SDS011;2982;42.684;23.356;2022-08-03T05:50:03;49.00;;;5.07;;
5912;SDS011;2982;42.684;23.356;2022-08-03T05:52:28;5.35;;;2.90;;
5912;SDS011;2982;42.684;23.356;2022-08-03T05:54:54;3.00;;;2.20;;
5912;SDS011;2982;42.684;23.356;2022-08-03T05:57:19;3.67;;;2.58;;
5912;SDS011;2982;42.684;23.356;2022-08-03T05:59:44;2.70;;;2.50;;
5912;SDS011;2982;42.684;23.356;2022-08-03T06:02:09;4.20;;;2.58;;
5912;SDS011;2982;42.684;23.356;2022-08-03T06:04:35;4.32;;;2.55;;
5912;SDS011;2982;42.684;23.356;2022-08-03T06:07:00;6.38;;;2.63;;
5912;SDS011;2982;42.684;23.356;2022-08-03T06:09:25;6.93;;;2.15;;
5912;SDS011;2982;42.684;23.356;2022-08-03T06:11:50;9.35;;;2.67;;
5912;SDS011;2982;42.684;23.356;2022-08-03T06:14:16;8.77;;;2.78;;
5912;SDS011;2982;42.684;23.356;2022-08-03T06:16:41;5.18;;;2.30;;
5912;SDS011;2982;42.684;23.356;2022-08-03T06:19:06;4.47;;;2.70;;
5912;SDS011;2982;42.684;23.356;2022-08-03T06:21:31;2.55;;;2.35;;
5912;SDS011;2982;42.684;23.356;2022-08-03T06:23:57;6.25;;;2.75;;
5912;SDS011;2982;42.684;23.356;2022-08-03T06:26:23;4.47;;;2.45;;
5912;SDS011;2982;42.684;23.356;2022-08-03T06:28:50;3.45;;;2.38;;
5912;SDS011;2982;42.684;23.356;2022-08-03T06:31:15;14.60;;;2.90;;
5912;SDS011;2982;42.684;23.356;2022-08-03T06:33:40;2.35;;;2.10;;
5912;SDS011;2982;42.684;23.356;2022-08-03T06:36:06;3.20;;;2.67;;
5912;SDS011;2982;42.684;23.356;2022-08-03T06:38:31;4.38;;;2.30;;
5912;SDS011;2982;42.684;23.356;2022-08-03T06:40:56;8.20;;;3.00;;
5912;SDS011;2982;42.684;23.356;2022-08-03T06:43:22;7.85;;;2.65;;
5912;SDS011;2982;42.684;23.356;2022-08-03T06:45:47;5.72;;;2.90;;
5912;SDS011;2982;42.684;23.356;2022-08-03T06:48:12;5.03;;;2.80;;
5912;SDS011;2982;42.684;23.356;2022-08-03T06:50:38;4.60;;;2.00;;
5912;SDS011;2982;42.684;23.356;2022-08-03T06:53:05;7.85;;;2.35;;
5912;SDS011;2982;42.684;23.356;2022-08-03T06:55:31;4.85;;;2.85;;
5912;SDS011;2982;42.684;23.356;2022-08-03T06:57:56;3.85;;;2.90;;
5912;SDS011;2982;42.684;23.356;2022-08-03T07:00:22;4.57;;;2.67;;
5912;SDS011;2982;42.684;23.356;2022-08-03T07:02:48;6.32;;;2.85;;
5912;SDS011;2982;42.684;23.356;2022-08-03T07:05:13;3.65;;;2.60;;
5912;SDS011;2982;42.684;23.356;2022-08-03T07:07:39;2.83;;;2.58;;
5912;SDS011;2982;42.684;23.356;2022-08-03T07:10:05;4.82;;;2.40;;
5912;SDS011;2982;42.684;23.356;2022-08-03T07:12:32;8.55;;;2.90;;
5912;SDS011;2982;42.684;23.356;2022-08-03T07:14:59;7.68;;;2.50;;
5912;SDS011;2982;42.684;23.356;2022-08-03T07:17:25;3.45;;;2.88;;
5912;SDS011;2982;42.684;23.356;2022-08-03T07:19:51;3.05;;;2.58;;
5912;SDS011;2982;42.684;23.356;2022-08-03T07:22:16;4.00;;;2.33;;
5912;SDS011;2982;42.684;23.356;2022-08-03T07:24:42;9.82;;;2.60;;
5912;SDS011;2982;42.684;23.356;2022-08-03T07:27:07;5.25;;;2.88;;
5912;SDS011;2982;42.684;23.356;2022-08-03T07:29:33;4.30;;;3.05;;
5912;SDS011;2982;42.684;23.356;2022-08-03T07:32:00;4.18;;;3.05;;
5912;SDS011;2982;42.684;23.356;2022-08-03T07:34:25;6.55;;;3.00;;
5912;SDS011;2982;42.684;23.356;2022-08-03T07:36:50;3.55;;;3.25;;
5912;SDS011;2982;42.684;23.356;2022-08-03T07:39:16;2.95;;;2.75;;
5912;SDS011;2982;42.684;23.356;2022-08-03T07:41:41;3.75;;;3.45;;
5912;SDS011;2982;42.684;23.356;2022-08-03T07:44:06;9.23;;;3.45;;
5912;SDS011;2982;42.684;23.356;2022-08-03T07:46:32;9.27;;;3.70;;
5912;SDS011;2982;42.684;23.356;2022-08-03T07:48:57;10.80;;;4.28;;
5912;SDS011;2982;42.684;23.356;2022-08-03T07:51:22;6.82;;;2.97;;
5912;SDS011;2982;42.684;23.356;2022-08-03T07:53:48;5.20;;;2.53;;
5912;SDS011;2982;42.684;23.356;2022-08-03T07:56:13;5.90;;;2.55;;
5912;SDS011;2982;42.684;23.356;2022-08-03T07:58:39;2.80;;;2.60;;
5912;SDS011;2982;42.684;23.356;2022-08-03T08:01:07;4.88;;;2.38;;
5912;SDS011;2982;42.684;23.356;2022-08-03T08:03:33;7.22;;;2.97;;
5912;SDS011;2982;42.684;23.356;2022-08-03T08:05:58;12.23;;;3.60;;
5912;SDS011;2982;42.684;23.356;2022-08-03T08:08:23;5.10;;;2.63;;
5912;SDS011;2982;42.684;23.356;2022-08-03T08:10:48;6.18;;;3.10;;
5912;SDS011;2982;42.684;23.356;2022-08-03T08:13:14;6.78;;;2.80;;
5912;SDS011;2982;42.684;23.356;2022-08-03T08:15:39;7.22;;;3.33;;
5912;SDS011;2982;42.684;23.356;2022-08-03T08:18:05;2.42;;;2.22;;
5912;SDS011;2982;42.684;23.356;2022-08-03T08:20:31;6.85;;;2.38;;
5912;SDS011;2982;42.684;23.356;2022-08-03T08:23:00;2.75;;;2.55;;
5912;SDS011;2982;42.684;23.356;2022-08-03T08:25:26;3.65;;;3.25;;
5912;SDS011;2982;42.684;23.356;2022-08-03T08:27:53;4.13;;;3.25;;
5912;SDS011;2982;42.684;23.356;2022-08-03T08:30:19;6.38;;;2.75;;
5912;SDS011;2982;42.684;23.356;2022-08-03T08:32:46;6.05;;;3.03;;
5912;SDS011;2982;42.684;23.356;2022-08-03T08:35:12;3.65;;;2.90;;
5912;SDS011;2982;42.684;23.356;2022-08-03T08:37:38;4.30;;;2.47;;
5912;SDS011;2982;42.684;23.356;2022-08-03T08:40:04;7.95;;;2.70;;
5912;SDS011;2982;42.684;23.356;2022-08-03T08:42:33;5.80;;;2.20;;
5912;SDS011;2982;42.684;23.356;2022-08-03T08:45:01;7.40;;;2.42;;
5912;SDS011;2982;42.684;23.356;2022-08-03T08:47:28;2.75;;;1.70;;
5912;SDS011;2982;42.684;23.356;2022-08-03T08:49:54;3.60;;;2.35;;
5912;SDS011;2982;42.684;23.356;2022-08-03T08:52:28;3.50;;;1.85;;
5912;SDS011;2982;42.684;23.356;2022-08-03T08:54:56;7.18;;;2.22;;
5912;SDS011;2982;42.684;23.356;2022-08-03T08:57:28;7.53;;;1.50;;
5912;SDS011;2982;42.684;23.356;2022-08-03T08:59:55;1.75;;;1.65;;
5912;SDS011;2982;42.684;23.356;2022-08-03T09:02:24;3.03;;;1.92;;
5912;SDS011;2982;42.684;23.356;2022-08-03T09:04:50;6.85;;;1.85;;
5912;SDS011;2982;42.684;23.356;2022-08-03T09:07:15;2.92;;;1.38;;
5912;SDS011;2982;42.684;23.356;2022-08-03T09:09:41;4.82;;;2.20;;
5912;SDS011;2982;42.684;23.356;2022-08-03T09:12:07;2.05;;;1.70;;
5912;SDS011;2982;42.684;23.356;2022-08-03T09:14:32;3.65;;;1.92;;
5912;SDS011;2982;42.684;23.356;2022-08-03T09:16:59;4.50;;;2.00;;
5912;SDS011;2982;42.684;23.356;2022-08-03T09:19:25;1.67;;;1.58;;
5912;SDS011;2982;42.684;23.356;2022-08-03T09:22:06;4.78;;;1.73;;
5912;SDS011;2982;42.684;23.356;2022-08-03T09:24:56;3.10;;;2.83;;
5912;SDS011;2982;42.684;23.356;2022-08-03T09:27:23;2.95;;;1.98;;
5912;SDS011;2982;42.684;23.356;2022-08-03T09:29:49;1.83;;;1.05;;
5912;SDS011;2982;42.684;23.356;2022-08-03T09:32:19;3.80;;;1.63;;
5912;SDS011;2982;42.684;23.356;2022-08-03T09:34:46;1.42;;;1.08;;
5912;SDS011;2982;42.684;23.356;2022-08-03T09:37:13;2.03;;;1.30;;
5912;SDS011;2982;42.684;23.356;2022-08-03T09:39:38;6.18;;;1.85;;
5912;SDS011;2982;42.684;23.356;2022-08-03T09:42:11;1.88;;;1.60;;
5912;SDS011;2982;42.684;23.356;2022-08-03T09:44:45;8.45;;;1.42;;
5912;SDS011;2982;42.684;23.356;2022-08-03T09:47:27;4.05;;;1.25;;
5912;SDS011;2982;42.684;23.356;2022-08-03T09:50:00;1.67;;;1.20;;
5912;SDS011;2982;42.684;23.356;2022-08-03T09:52:30;4.25;;;1.20;;
5912;SDS011;2982;42.684;23.356;2022-08-03T09:54:58;4.40;;;1.42;;
5912;SDS011;2982;42.684;23.356;2022-08-03T09:57:25;2.15;;;1.05;;
5912;SDS011;2982;42.684;23.356;2022-08-03T09:59:52;1.30;;;1.20;;
5912;SDS011;2982;42.684;23.356;2022-08-03T10:02:29;2.10;;;1.00;;
5912;SDS011;2982;42.684;23.356;2022-08-03T10:04:55;2.83;;;1.33;;
5912;SDS011;2982;42.684;23.356;2022-08-03T10:07:20;10.57;;;1.58;;
5912;SDS011;2982;42.684;23.356;2022-08-03T10:09:55;1.20;;;1.10;;
5912;SDS011;2982;42.684;23.356;2022-08-03T10:12:23;2.97;;;0.85;;
5912;SDS011;2982;42.684;23.356;2022-08-03T10:14:49;0.95;;;0.95;;
5912;SDS011;2982;42.684;23.356;2022-08-03T10:17:18;2.35;;;1.10;;
5912;SDS011;2982;42.684;23.356;2022-08-03T10:19:47;3.72;;;1.33;;
5912;SDS011;2982;42.684;23.356;2022-08-03T10:22:14;1.10;;;1.00;;
5912;SDS011;2982;42.684;23.356;2022-08-03T10:27:26;1.42;;;1.33;;
5912;SDS011;2982;42.684;23.356;2022-08-03T10:29:58;0.85;;;0.85;;
5912;SDS011;2982;42.684;23.356;2022-08-03T10:35:17;2.88;;;1.10;;
5912;SDS011;2982;42.684;23.356;2022-08-03T10:37:44;0.70;;;0.70;;
5912;SDS011;2982;42.684;23.356;2022-08-03T10:40:17;1.38;;;1.02;;
5912;SDS011;2982;42.684;23.356;2022-08-03T10:42:46;1.88;;;0.80;;
5912;SDS011;2982;42.684;23.356;2022-08-03T10:45:20;1.67;;;1.00;;
5912;SDS011;2982;42.684;23.356;2022-08-03T10:47:49;2.53;;;1.00;;
5912;SDS011;2982;42.684;23.356;2022-08-03T10:50:16;1.15;;;1.15;;
5912;SDS011;2982;42.684;23.356;2022-08-03T10:52:55;2.03;;;1.35;;
5912;SDS011;2982;42.684;23.356;2022-08-03T10:58:00;1.30;;;1.20;;
5912;SDS011;2982;42.684;23.356;2022-08-03T11:00:26;1.25;;;1.15;;
5912;SDS011;2982;42.684;23.356;2022-08-03T11:05:29;1.20;;;1.00;;
5912;SDS011;2982;42.684;23.356;2022-08-03T11:11:39;1.65;;;1.20;;
5912;SDS011;2982;42.684;23.356;2022-08-03T11:16:32;1.02;;;0.93;;
5912;SDS011;2982;42.684;23.356;2022-08-03T11:19:05;2.50;;;0.90;;
5912;SDS011;2982;42.684;23.356;2022-08-03T11:46:03;1.65;;;1.10;;
5912;SDS011;2982;42.684;23.356;2022-08-03T11:48:37;0.95;;;0.90;;
5912;SDS011;2982;42.684;23.356;2022-08-03T11:51:07;1.80;;;0.80;;
5912;SDS011;2982;42.684;23.356;2022-08-03T11:53:44;1.30;;;1.15;;
5912;SDS011;2982;42.684;23.356;2022-08-03T11:56:09;2.97;;;1.17;;
5912;SDS011;2982;42.684;23.356;2022-08-03T11:58:34;2.53;;;1.08;;
5912;SDS011;2982;42.684;23.356;2022-08-03T12:01:03;1.63;;;1.00;;
5912;SDS011;2982;42.684;23.356;2022-08-03T12:03:33;1.30;;;1.20;;
5912;SDS011;2982;42.684;23.356;2022-08-03T12:06:00;2.15;;;1.20;;
5912;SDS011;2982;42.684;23.356;2022-08-03T12:10:50;1.10;;;1.00;;
5912;SDS011;2982;42.684;23.356;2022-08-03T12:13:17;1.02;;;1.02;;
5912;SDS011;2982;42.684;23.356;2022-08-03T12:15:47;0.90;;;0.90;;
5912;SDS011;2982;42.684;23.356;2022-08-03T12:18:16;1.45;;;1.08;;
5912;SDS011;2982;42.684;23.356;2022-08-03T12:20:42;1.88;;;0.90;;
5912;SDS011;2982;42.684;23.356;2022-08-03T12:23:09;1.10;;;1.00;;
5912;SDS011;2982;42.684;23.356;2022-08-03T12:25:38;2.03;;;1.05;;
5912;SDS011;2982;42.684;23.356;2022-08-03T12:28:07;1.02;;;0.90;;
5912;SDS011;2982;42.684;23.356;2022-08-03T12:30:38;2.90;;;1.15;;
5912;SDS011;2982;42.684;23.356;2022-08-03T12:35:38;1.75;;;1.25;;
5912;SDS011;2982;42.684;23.356;2022-08-03T12:38:04;1.02;;;0.93;;
5912;SDS011;2982;42.684;23.356;2022-08-03T12:40:30;0.93;;;0.93;;
5912;SDS011;2982;42.684;23.356;2022-08-03T12:42:55;1.80;;;1.10;;
5912;SDS011;2982;42.684;23.356;2022-08-03T12:45:21;1.25;;;1.08;;
5912;SDS011;2982;42.684;23.356;2022-08-03T12:47:57;1.63;;;1.20;;
5912;SDS011;2982;42.684;23.356;2022-08-03T12:52:52;1.15;;;1.05;;
5912;SDS011;2982;42.684;23.356;2022-08-03T12:55:18;1.17;;;1.08;;
5912;SDS011;2982;42.684;23.356;2022-08-03T12:57:44;1.90;;;1.10;;
5912;SDS011;2982;42.684;23.356;2022-08-03T13:00:10;1.00;;;1.00;;
5912;SDS011;2982;42.684;23.356;2022-08-03T13:02:37;1.33;;;1.20;;
5912;SDS011;2982;42.684;23.356;2022-08-03T13:05:08;2.42;;;1.00;;
5912;SDS011;2982;42.684;23.356;2022-08-03T13:07:41;0.95;;;0.95;;
5912;SDS011;2982;42.684;23.356;2022-08-03T13:10:08;1.80;;;1.00;;
5912;SDS011;2982;42.684;23.356;2022-08-03T13:12:44;1.20;;;1.20;;
5912;SDS011;2982;42.684;23.356;2022-08-03T13:15:11;3.33;;;1.58;;
5912;SDS011;2982;42.684;23.356;2022-08-03T13:17:36;1.23;;;1.10;;
5912;SDS011;2982;42.684;23.356;2022-08-03T13:20:02;4.28;;;1.50;;
5912;SDS011;2982;42.684;23.356;2022-08-03T13:22:28;1.55;;;1.45;;
5912;SDS011;2982;42.684;23.356;2022-08-03T13:24:54;1.48;;;1.38;;
5912;SDS011;2982;42.684;23.356;2022-08-03T13:27:20;2.53;;;1.58;;
5912;SDS011;2982;42.684;23.356;2022-08-03T13:29:46;2.33;;;1.20;;
5912;SDS011;2982;42.684;23.356;2022-08-03T13:32:11;2.35;;;1.48;;
5912;SDS011;2982;42.684;23.356;2022-08-03T13:34:37;3.28;;;1.65;;
5912;SDS011;2982;42.684;23.356;2022-08-03T13:37:02;1.33;;;1.15;;
5912;SDS011;2982;42.684;23.356;2022-08-03T13:39:28;3.50;;;1.55;;
5912;SDS011;2982;42.684;23.356;2022-08-03T13:41:53;3.33;;;1.52;;
5912;SDS011;2982;42.684;23.356;2022-08-03T13:44:18;1.80;;;1.70;;
5912;SDS011;2982;42.684;23.356;2022-08-03T13:46:44;5.10;;;1.73;;
5912;SDS011;2982;42.684;23.356;2022-08-03T13:49:10;2.85;;;1.75;;
5912;SDS011;2982;42.684;23.356;2022-08-03T13:51:36;1.63;;;1.52;;
5912;SDS011;2982;42.684;23.356;2022-08-03T13:54:01;2.47;;;1.77;;
5912;SDS011;2982;42.684;23.356;2022-08-03T13:56:27;3.10;;;1.45;;
5912;SDS011;2982;42.684;23.356;2022-08-03T13:58:53;1.77;;;1.48;;
5912;SDS011;2982;42.684;23.356;2022-08-03T14:01:19;2.28;;;1.33;;
5912;SDS011;2982;42.684;23.356;2022-08-03T14:03:44;4.57;;;1.65;;
5912;SDS011;2982;42.684;23.356;2022-08-03T14:06:10;1.48;;;1.20;;
5912;SDS011;2982;42.684;23.356;2022-08-03T14:08:35;3.60;;;2.15;;
5912;SDS011;2982;42.684;23.356;2022-08-03T14:11:00;3.75;;;2.28;;
5912;SDS011;2982;42.684;23.356;2022-08-03T14:13:27;2.22;;;1.48;;
5912;SDS011;2982;42.684;23.356;2022-08-03T14:15:52;2.10;;;1.65;;
5912;SDS011;2982;42.684;23.356;2022-08-03T14:18:18;3.25;;;1.55;;
5912;SDS011;2982;42.684;23.356;2022-08-03T14:20:44;3.63;;;1.73;;
5912;SDS011;2982;42.684;23.356;2022-08-03T14:23:09;2.58;;;1.60;;
5912;SDS011;2982;42.684;23.356;2022-08-03T14:25:34;2.38;;;1.58;;
5912;SDS011;2982;42.684;23.356;2022-08-03T14:28:00;2.15;;;1.95;;
5912;SDS011;2982;42.684;23.356;2022-08-03T14:30:25;7.28;;;1.55;;
5912;SDS011;2982;42.684;23.356;2022-08-03T14:32:50;2.38;;;1.30;;
5912;SDS011;2982;42.684;23.356;2022-08-03T14:35:16;1.80;;;1.70;;
5912;SDS011;2982;42.684;23.356;2022-08-03T14:37:41;2.58;;;1.90;;
5912;SDS011;2982;42.684;23.356;2022-08-03T14:40:06;2.45;;;1.83;;
5912;SDS011;2982;42.684;23.356;2022-08-03T14:42:32;5.60;;;1.75;;
5912;SDS011;2982;42.684;23.356;2022-08-03T14:44:58;2.38;;;2.17;;
5912;SDS011;2982;42.684;23.356;2022-08-03T14:47:23;4.15;;;1.80;;
5912;SDS011;2982;42.684;23.356;2022-08-03T14:49:48;2.03;;;1.88;;
5912;SDS011;2982;42.684;23.356;2022-08-03T14:52:14;2.45;;;1.50;;
5912;SDS011;2982;42.684;23.356;2022-08-03T14:54:39;10.07;;;1.70;;
5912;SDS011;2982;42.684;23.356;2022-08-03T14:57:04;1.80;;;1.70;;
5912;SDS011;2982;42.684;23.356;2022-08-03T14:59:29;1.70;;;1.60;;
5912;SDS011;2982;42.684;23.356;2022-08-03T15:01:55;2.17;;;1.50;;
5912;SDS011;2982;42.684;23.356;2022-08-03T15:04:20;2.42;;;2.00;;
5912;SDS011;2982;42.684;23.356;2022-08-03T15:06:45;2.90;;;1.92;;
5912;SDS011;2982;42.684;23.356;2022-08-03T15:09:11;2.25;;;2.05;;
5912;SDS011;2982;42.684;23.356;2022-08-03T15:11:36;3.17;;;1.83;;
5912;SDS011;2982;42.684;23.356;2022-08-03T15:14:01;2.55;;;2.10;;
5912;SDS011;2982;42.684;23.356;2022-08-03T15:16:27;2.22;;;2.13;;
5912;SDS011;2982;42.684;23.356;2022-08-03T15:18:52;2.25;;;2.05;;
5912;SDS011;2982;42.684;23.356;2022-08-03T15:21:17;4.40;;;2.10;;
5912;SDS011;2982;42.684;23.356;2022-08-03T15:23:43;2.08;;;1.83;;
5912;SDS011;2982;42.684;23.356;2022-08-03T15:26:08;2.83;;;2.13;;
5912;SDS011;2982;42.684;23.356;2022-08-03T15:28:34;3.97;;;2.28;;
5912;SDS011;2982;42.684;23.356;2022-08-03T15:30:59;1.80;;;1.70;;
5912;SDS011;2982;42.684;23.356;2022-08-03T15:33:25;1.85;;;1.75;;
5912;SDS011;2982;42.684;23.356;2022-08-03T15:35:50;3.00;;;2.38;;
5912;SDS011;2982;42.684;23.356;2022-08-03T15:38:16;3.47;;;2.67;;
5912;SDS011;2982;42.684;23.356;2022-08-03T15:40:41;3.28;;;2.92;;
5912;SDS011;2982;42.684;23.356;2022-08-03T15:43:06;8.10;;;3.95;;
5912;SDS011;2982;42.684;23.356;2022-08-03T15:45:32;18.80;;;4.40;;
5912;SDS011;2982;42.684;23.356;2022-08-03T15:47:57;6.07;;;2.97;;
5912;SDS011;2982;42.684;23.356;2022-08-03T15:50:22;5.35;;;3.20;;
5912;SDS011;2982;42.684;23.356;2022-08-03T15:52:48;3.05;;;2.60;;
5912;SDS011;2982;42.684;23.356;2022-08-03T15:55:13;4.55;;;3.25;;
5912;SDS011;2982;42.684;23.356;2022-08-03T15:57:38;4.22;;;3.47;;
5912;SDS011;2982;42.684;23.356;2022-08-03T16:00:04;4.25;;;3.97;;